createdAt,value
2022-12-26T00:00:53.942Z,100703.56
2022-12-26T00:03:21.926Z,100698.78
2022-12-26T00:05:50.039Z,100702.63
2022-12-26T00:08:19.390Z,100699.44
2022-12-26T00:10:47.400Z,100703.28
2022-12-26T00:13:39.914Z,100711.44
2022-12-26T00:16:08.159Z,100707.91
2022-12-26T00:18:36.081Z,100713.34
2022-12-26T00:21:03.998Z,100712.56
2022-12-26T00:23:34.859Z,100708.72
2022-12-26T00:26:05.779Z,100708.72
2022-12-26T00:28:33.916Z,100708.72
2022-12-26T00:31:05.912Z,100695.94
2022-12-26T00:33:35.560Z,100686.31
2022-12-26T00:36:04.104Z,100693.34
2022-12-26T00:38:33.506Z,100696.88
2022-12-26T00:41:01.679Z,100691.75
2022-12-26T00:43:29.519Z,100689.50
2022-12-26T00:45:57.457Z,100696.53
2022-12-26T00:48:25.574Z,100703.56
2022-12-26T00:50:53.872Z,100705.19
2022-12-26T00:53:22.898Z,100705.19
2022-12-26T00:55:52.559Z,100712.22
2022-12-26T00:58:21.457Z,100729.81
2022-12-26T01:00:49.741Z,100720.06
2022-12-26T01:03:18.007Z,100719.25
2022-12-26T01:05:47.689Z,100732.84
2022-12-26T01:08:23.409Z,100742.28
2022-12-26T01:10:54.309Z,100731.72
2022-12-26T01:13:22.729Z,100740.56
2022-12-26T01:15:51.863Z,100737.84
2022-12-26T01:18:20.332Z,100749.34
2022-12-26T01:20:48.990Z,100741.84
2022-12-26T01:23:18.145Z,100742.97
2022-12-26T01:26:18.343Z,100746.31
2022-12-26T01:28:35.363Z,100747.44
2022-12-26T01:31:04.468Z,100756.72
2022-12-26T01:33:32.946Z,100761.72
2022-12-26T01:36:01.675Z,100774.19
2022-12-26T01:38:29.808Z,100769.88
2022-12-26T01:41:11.550Z,100768.25
2022-12-26T01:43:56.808Z,100763.31
2022-12-26T01:46:30.715Z,100770.03
2022-12-26T01:49:02.010Z,100772.75
2022-12-26T01:51:34.162Z,100759.16
2022-12-26T01:54:37.409Z,100752.13
2022-12-26T01:56:53.575Z,100759.78
2022-12-26T01:59:27.599Z,100765.53
2022-12-26T02:01:56.862Z,100755.47
2022-12-26T02:04:47.070Z,100743.31
2022-12-26T02:07:15.219Z,100764.28
2022-12-26T02:09:43.523Z,100754.19
2022-12-26T02:12:34.589Z,100758.38
2022-12-26T02:15:07.891Z,100773.88
2022-12-26T02:17:35.842Z,100783.94
2022-12-26T02:20:11.991Z,100776.91
2022-12-26T02:23:10.665Z,100774.38
2022-12-26T02:26:05.860Z,100771.16
2022-12-26T02:28:53.499Z,100775.00
2022-12-26T02:31:33.035Z,100776.59
2022-12-26T02:34:11.302Z,100787.47
2022-12-26T02:36:55.539Z,100782.69
2022-12-26T02:39:44.992Z,100776.13
2022-12-26T02:42:25.681Z,100791.97
2022-12-26T02:45:15.952Z,100810.66
2022-12-26T02:47:56.233Z,100806.66
2022-12-26T02:50:49.880Z,100791.44
2022-12-26T02:53:42.337Z,100808.88
2022-12-26T02:56:34.868Z,100803.75
2022-12-26T02:59:55.001Z,100809.19
2022-12-26T03:02:42.868Z,100807.94
2022-12-26T03:05:39.461Z,100802.50
2022-12-26T03:08:28.291Z,100813.50
2022-12-26T03:11:15.717Z,100813.19
2022-12-26T03:13:46.972Z,100815.91
2022-12-26T03:16:33.471Z,100810.47
2022-12-26T03:19:07.161Z,100814.31
2022-12-26T03:21:41.111Z,100808.56
2022-12-26T03:24:12.117Z,100806.66
2022-12-26T03:26:47.462Z,100806.81
2022-12-26T03:29:35.941Z,100800.59
2022-12-26T03:32:07.503Z,100813.53
2022-12-26T03:34:38.828Z,100815.16
2022-12-26T03:37:47.419Z,100819.28
2022-12-26T03:40:50.948Z,100820.09
2022-12-26T03:43:46.565Z,100834.00
2022-12-26T03:46:41.058Z,100826.19
2022-12-26T03:49:30.909Z,100821.88
2022-12-26T03:52:22.054Z,100817.03
2022-12-26T03:55:15.628Z,100807.94
2022-12-26T03:58:09.086Z,100814.50
2022-12-26T04:00:57.535Z,100806.34
2022-12-26T04:03:44.759Z,100824.06
2022-12-26T04:06:36.847Z,100823.91
2022-12-26T04:09:28.306Z,100818.47
2022-12-26T04:12:18.949Z,100826.13
2022-12-26T04:15:09.838Z,100828.06
2022-12-26T04:18:15.151Z,100831.41
2022-12-26T04:20:52.335Z,100829.66
2022-12-26T04:23:42.845Z,100840.50
2022-12-26T04:26:34.420Z,100846.75
2022-12-26T04:29:22.914Z,100849.78
2022-12-26T04:32:20.062Z,100852.84
2022-12-26T04:35:10.405Z,100857.47
2022-12-26T04:38:02.061Z,100841.78
2022-12-26T04:40:54.347Z,100841.78
2022-12-26T04:43:49.477Z,100842.44
2022-12-26T04:46:22.242Z,100845.47
2022-12-26T04:49:10.255Z,100840.81
2022-12-26T04:51:38.659Z,100848.50
2022-12-26T04:54:07.841Z,100846.09
2022-12-26T04:56:36.448Z,100855.34
2022-12-26T04:59:04.438Z,100844.34
2022-12-26T05:01:51.260Z,100840.03
2022-12-26T05:04:37.686Z,100844.94
2022-12-26T05:07:31.776Z,100852.63
2022-12-26T05:09:59.578Z,100847.03
2022-12-26T05:12:27.482Z,100845.41
2022-12-26T05:14:55.601Z,100850.84
2022-12-26T05:17:42.339Z,100847.34
2022-12-26T05:20:30.002Z,100845.72
2022-12-26T05:23:16.896Z,100843.81
2022-12-26T05:26:12.390Z,100851.16
2022-12-26T05:28:43.177Z,100864.75
2022-12-26T05:31:11.477Z,100881.03
2022-12-26T05:33:57.904Z,100884.56
2022-12-26T05:36:30.960Z,100876.25
2022-12-26T05:38:58.822Z,100879.28
2022-12-26T05:41:26.688Z,100875.47
2022-12-26T05:43:54.990Z,100871.63
2022-12-26T05:46:22.963Z,100877.84
2022-12-26T05:48:52.235Z,100871.78
2022-12-26T05:51:20.200Z,100873.38
2022-12-26T05:53:48.380Z,100876.59
2022-12-26T05:56:17.965Z,100875.00
2022-12-26T05:58:46.281Z,100885.53
2022-12-26T06:01:16.154Z,100878.66
2022-12-26T06:03:47.717Z,100861.56
2022-12-26T06:06:17.977Z,100847.19
2022-12-26T06:08:48.288Z,100843.34
2022-12-26T06:11:17.295Z,100842.22
2022-12-26T06:13:45.661Z,100846.53
2022-12-26T06:16:16.382Z,100831.88
2022-12-26T06:18:44.622Z,100834.59
2022-12-26T06:21:14.375Z,100843.53
2022-12-26T06:23:44.130Z,100845.47
2022-12-26T06:26:13.014Z,100851.97
2022-12-26T06:28:41.986Z,100845.59
2022-12-26T06:31:12.572Z,100837.59
2022-12-26T06:33:40.646Z,100841.41
2022-12-26T06:36:11.143Z,100849.09
2022-12-26T06:38:39.849Z,100848.28
2022-12-26T06:41:11.907Z,100840.44
2022-12-26T06:43:39.979Z,100855.13
2022-12-26T06:46:11.473Z,100848.09
2022-12-26T06:48:39.972Z,100861.22
2022-12-26T06:51:10.853Z,100859.63
2022-12-26T06:53:39.149Z,100867.25
2022-12-26T06:56:10.276Z,100883.56
2022-12-26T06:58:38.900Z,100880.34
2022-12-26T07:01:08.888Z,100879.25
2022-12-26T07:03:36.907Z,100876.53
2022-12-26T07:06:06.519Z,100868.09
2022-12-26T07:08:34.664Z,100883.56
2022-12-26T07:11:02.670Z,100896.03
2022-12-26T07:13:32.074Z,100900.84
2022-12-26T07:16:00.948Z,100893.81
2022-12-26T07:18:28.895Z,100904.66
2022-12-26T07:20:56.773Z,100898.44
2022-12-26T07:23:24.698Z,100893.81
2022-12-26T07:25:52.542Z,100897.63
2022-12-26T07:28:20.397Z,100899.56
2022-12-26T07:30:51.467Z,100906.25
2022-12-26T07:33:19.484Z,100913.28
2022-12-26T07:35:47.342Z,100910.56
2022-12-26T07:38:15.188Z,100914.72
2022-12-26T07:40:43.051Z,100915.53
2022-12-26T07:43:11.377Z,100924.16
2022-12-26T07:45:45.270Z,100925.28
2022-12-26T07:48:15.234Z,100931.97
2022-12-26T07:50:47.170Z,100931.19
2022-12-26T07:53:15.751Z,100946.88
2022-12-26T07:55:43.715Z,100953.72
2022-12-26T07:58:11.553Z,100931.19
2022-12-26T08:00:39.588Z,100934.41
2022-12-26T08:03:08.477Z,100940.94
2022-12-26T08:05:37.852Z,100934.41
2022-12-26T08:08:06.169Z,100921.13
2022-12-26T08:10:34.326Z,100941.44
2022-12-26T08:13:02.200Z,100945.28
2022-12-26T08:15:30.046Z,100945.28
2022-12-26T08:17:57.936Z,100949.28
2022-12-26T08:20:25.884Z,100936.97
2022-12-26T08:25:23.097Z,100944.00
2022-12-26T08:27:51.061Z,100938.56
2022-12-26T08:30:19.151Z,100941.28
2022-12-26T08:32:46.987Z,100934.75
2022-12-26T08:35:15.046Z,100938.56
2022-12-26T08:37:43.071Z,100935.56
2022-12-26T08:40:12.996Z,100933.31
2022-12-26T08:43:03.050Z,100938.13
2022-12-26T08:45:31.373Z,100945.97
2022-12-26T08:47:59.566Z,100949.78
2022-12-26T08:50:27.391Z,100946.13
2022-12-26T08:52:55.293Z,100955.56
2022-12-26T08:55:25.654Z,100960.38
2022-12-26T08:57:53.518Z,100973.66
2022-12-26T09:00:23.923Z,100967.91
2022-12-26T09:02:52.014Z,100968.41
2022-12-26T09:05:20.017Z,100962.97
2022-12-26T09:07:48.103Z,100959.59
2022-12-26T09:10:16.134Z,100972.56
2022-12-26T09:12:45.464Z,100975.28
2022-12-26T09:15:13.274Z,100975.78
2022-12-26T09:17:41.192Z,100986.66
2022-12-26T09:20:10.580Z,100975.78
2022-12-26T09:22:54.258Z,100976.56
2022-12-26T09:25:24.803Z,100982.81
2022-12-26T09:27:59.179Z,100986.34
2022-12-26T09:30:28.368Z,100982.34
2022-12-26T09:32:56.308Z,100986.16
2022-12-26T09:35:24.156Z,100987.25
2022-12-26T09:37:52.163Z,101001.34
2022-12-26T09:40:25.429Z,101001.34
2022-12-26T09:43:03.740Z,101006.78
2022-12-26T09:45:45.444Z,101011.72
2022-12-26T09:48:20.049Z,101014.44
2022-12-26T09:50:51.775Z,101022.91
2022-12-26T09:53:26.106Z,101029.63
2022-12-26T09:55:57.402Z,101026.75
2022-12-26T09:58:29.626Z,101023.91
2022-12-26T10:01:03.002Z,101034.94
2022-12-26T10:03:31.762Z,101027.25
2022-12-26T10:06:15.396Z,101033.53
2022-12-26T10:09:19.541Z,101033.69
2022-12-26T10:12:00.334Z,101030.03
2022-12-26T10:14:39.878Z,101023.78
2022-12-26T10:17:18.152Z,101025.72
2022-12-26T10:20:06.016Z,101024.41
2022-12-26T10:23:01.857Z,101011.78
2022-12-26T10:25:42.859Z,101006.19
2022-12-26T10:28:18.548Z,101010.69
2022-12-26T10:30:49.878Z,101003.81
2022-12-26T10:33:22.129Z,101002.41
2022-12-26T10:35:50.587Z,101002.41
2022-12-26T10:38:31.773Z,101007.53
2022-12-26T10:41:05.762Z,101011.06
2022-12-26T10:43:35.823Z,101004.97
2022-12-26T10:46:49.911Z,101010.25
2022-12-26T10:49:21.428Z,101015.84
2022-12-26T10:51:49.798Z,101008.19
2022-12-26T10:54:20.180Z,101012.84
2022-12-26T10:56:50.661Z,101022.88
2022-12-26T10:59:23.439Z,101012.34
2022-12-26T11:01:53.218Z,101007.22
2022-12-26T11:04:53.271Z,101013.00
2022-12-26T11:07:14.000Z,101004.84
2022-12-26T11:09:45.562Z,101007.56
2022-12-26T11:12:22.130Z,101007.75
2022-12-26T11:14:50.368Z,101001.97
2022-12-26T11:17:29.223Z,101005.81
2022-12-26T11:20:24.608Z,101005.81
2022-12-26T11:22:52.988Z,101012.06
2022-12-26T11:25:23.998Z,101021.19
2022-12-26T11:27:53.897Z,101015.75
2022-12-26T11:30:32.919Z,101022.16
2022-12-26T11:33:17.970Z,101018.63
2022-12-26T11:35:53.907Z,101020.09
2022-12-26T11:38:44.935Z,101027.28
2022-12-26T11:41:36.889Z,101016.06
2022-12-26T11:44:19.433Z,101020.09
2022-12-26T11:46:51.055Z,101021.38
2022-12-26T11:49:25.439Z,101011.13
2022-12-26T11:51:59.073Z,101010.81
2022-12-26T11:54:34.309Z,101021.69
2022-12-26T11:57:10.171Z,101028.59
2022-12-26T11:59:38.123Z,101032.25
2022-12-26T12:02:22.419Z,101031.13
2022-12-26T12:04:54.877Z,101023.31
2022-12-26T12:07:44.982Z,101025.06
2022-12-26T12:10:44.828Z,101029.38
2022-12-26T12:13:22.563Z,101019.78
2022-12-26T12:15:58.591Z,101031.31
2022-12-26T12:18:41.149Z,101028.13
2022-12-26T12:21:19.943Z,101028.28
2022-12-26T12:24:08.609Z,101023.47
2022-12-26T12:26:47.371Z,101038.34
2022-12-26T12:29:36.717Z,101072.75
2022-12-26T12:32:10.331Z,101079.13
2022-12-26T12:34:55.047Z,101083.69
2022-12-26T12:37:31.033Z,101081.75
2022-12-26T12:40:09.030Z,101093.03
2022-12-26T12:42:47.794Z,101098.28
2022-12-26T12:45:26.956Z,101103.25
2022-12-26T12:48:10.297Z,101100.97
2022-12-26T12:50:45.261Z,101099.69
2022-12-26T12:53:28.198Z,101103.00
2022-12-26T12:56:12.125Z,101111.31
2022-12-26T12:58:47.164Z,101113.22
2022-12-26T13:01:20.007Z,101107.72
2022-12-26T13:03:53.542Z,101122.75
2022-12-26T13:06:26.900Z,101124.78
2022-12-26T13:08:59.903Z,101125.88
2022-12-26T13:11:33.036Z,101122.81
2022-12-26T13:14:03.944Z,101115.28
2022-12-26T13:16:35.036Z,101121.63
2022-12-26T13:19:06.267Z,101114.72
2022-12-26T13:21:38.587Z,101121.47
2022-12-26T13:24:25.796Z,101121.75
2022-12-26T13:27:02.847Z,101121.94
2022-12-26T13:29:40.318Z,101134.84
2022-12-26T13:32:21.005Z,101140.47
2022-12-26T13:34:49.733Z,101144.78
2022-12-26T13:37:56.456Z,101150.34
2022-12-26T13:40:33.107Z,101148.72
2022-12-26T13:43:21.828Z,101161.63
2022-12-26T13:45:53.947Z,101153.09
2022-12-26T13:48:57.532Z,101166.69
2022-12-26T13:51:51.668Z,101179.78
2022-12-26T13:54:20.791Z,101179.16
2022-12-26T13:57:28.297Z,101175.25
2022-12-26T14:00:13.652Z,101189.84
2022-12-26T14:03:22.211Z,101195.38
2022-12-26T14:06:25.858Z,101186.84
2022-12-26T14:09:21.818Z,101188.25
2022-12-26T14:12:17.073Z,101197.28
2022-12-26T14:14:59.516Z,101205.44
2022-12-26T14:17:42.377Z,101208.84
2022-12-26T14:20:23.920Z,101206.44
2022-12-26T14:23:03.559Z,101224.63
2022-12-26T14:25:48.848Z,101230.66
2022-12-26T14:28:28.696Z,101235.56
2022-12-26T14:31:08.108Z,101243.72
2022-12-26T14:33:41.667Z,101243.72
2022-12-26T14:36:22.785Z,101250.94
2022-12-26T14:38:56.741Z,101267.72
2022-12-26T14:41:42.642Z,101261.00
2022-12-26T14:44:18.119Z,101266.16
2022-12-26T14:47:02.674Z,101266.75
2022-12-26T14:49:42.232Z,101262.63
2022-12-26T14:52:34.374Z,101281.44
2022-12-26T14:55:46.785Z,101279.22
2022-12-26T14:58:29.820Z,101269.66
2022-12-26T15:01:37.887Z,101286.25
2022-12-26T15:04:22.018Z,101293.81
2022-12-26T15:07:18.613Z,101294.47
2022-12-26T15:10:26.523Z,101302.03
2022-12-26T15:13:18.596Z,101303.13
2022-12-26T15:16:02.938Z,101308.13
2022-12-26T15:18:59.652Z,101315.22
2022-12-26T15:21:52.051Z,101323.16
2022-12-26T15:25:16.910Z,101323.38
2022-12-26T15:27:43.988Z,101319.84
2022-12-26T15:30:21.629Z,101324.91
2022-12-26T15:33:00.182Z,101334.63
2022-12-26T15:35:33.686Z,101335.25
2022-12-26T15:38:22.565Z,101338.19
2022-12-26T15:40:56.660Z,101340.91
2022-12-26T15:43:43.524Z,101357.81
2022-12-26T15:46:19.198Z,101360.63
2022-12-26T15:49:05.324Z,101369.47
2022-12-26T15:51:44.535Z,101365.72
2022-12-26T15:54:29.556Z,101369.03
2022-12-26T15:57:11.948Z,101379.34
2022-12-26T16:00:04.494Z,101385.41
2022-12-26T16:02:38.051Z,101386.03
2022-12-26T16:05:27.431Z,101399.69
2022-12-26T16:08:05.220Z,101401.19
2022-12-26T16:10:37.003Z,101405.38
2022-12-26T16:13:17.943Z,101419.19
2022-12-26T16:15:47.314Z,101419.75
2022-12-26T16:18:16.579Z,101413.84
2022-12-26T16:21:03.932Z,101413.03
2022-12-26T16:23:36.386Z,101417.50
2022-12-26T16:26:05.723Z,101428.34
2022-12-26T16:28:37.756Z,101429.47
2022-12-26T16:31:06.814Z,101440.06
2022-12-26T16:33:41.124Z,101440.13
2022-12-26T16:36:10.937Z,101444.25
2022-12-26T16:38:39.289Z,101452.41
2022-12-26T16:41:22.121Z,101459.78
2022-12-26T16:43:51.010Z,101454.59
2022-12-26T16:46:22.677Z,101455.94
2022-12-26T16:48:56.295Z,101461.41
2022-12-26T16:51:41.737Z,101475.75
2022-12-26T16:54:18.350Z,101476.59
2022-12-26T16:56:53.119Z,101467.13
2022-12-26T16:59:23.789Z,101477.44
2022-12-26T17:01:54.480Z,101487.75
2022-12-26T17:04:24.537Z,101487.97
2022-12-26T17:06:55.933Z,101491.28
2022-12-26T17:09:25.891Z,101511.56
2022-12-26T17:11:59.037Z,101498.59
2022-12-26T17:14:29.658Z,101516.47
2022-12-26T17:16:59.367Z,101522.13
2022-12-26T17:19:29.938Z,101520.78
2022-12-26T17:22:21.298Z,101519.19
2022-12-26T17:24:50.827Z,101527.31
2022-12-26T17:27:23.416Z,101532.72
2022-12-26T17:29:57.313Z,101537.09
2022-12-26T17:32:31.212Z,101527.38
2022-12-26T17:35:03.065Z,101525.22
2022-12-26T17:37:31.744Z,101535.50
2022-12-26T17:40:08.017Z,101543.63
2022-12-26T17:42:47.354Z,101542.56
2022-12-26T17:45:17.755Z,101545.78
2022-12-26T17:47:46.089Z,101548.50
2022-12-26T17:50:14.684Z,101546.66
2022-12-26T17:52:43.497Z,101555.28
2022-12-26T17:55:16.995Z,101557.75
2022-12-26T17:57:46.198Z,101560.72
2022-12-26T18:00:19.992Z,101561.53
2022-12-26T18:02:48.092Z,101563.72
2022-12-26T18:05:16.755Z,101563.97
2022-12-26T18:07:45.639Z,101568.59
2022-12-26T18:10:18.391Z,101586.16
2022-12-26T18:12:47.664Z,101583.47
2022-12-26T18:15:15.731Z,101586.97
2022-12-26T18:17:43.734Z,101596.13
2022-12-26T18:20:17.020Z,101589.13
2022-12-26T18:22:44.866Z,101596.69
2022-12-26T18:25:13.887Z,101607.50
2022-12-26T18:27:41.949Z,101604.81
2022-12-26T18:30:17.564Z,101615.03
2022-12-26T18:32:45.983Z,101621.25
2022-12-26T18:35:15.053Z,101622.59
2022-12-26T18:37:46.654Z,101625.84
2022-12-26T18:40:27.306Z,101632.31
2022-12-26T18:42:55.172Z,101632.31
2022-12-26T18:45:24.628Z,101636.63
2022-12-26T18:47:52.503Z,101638.75
2022-12-26T18:50:20.844Z,101655.50
2022-12-26T18:52:53.542Z,101663.03
2022-12-26T18:55:22.264Z,101661.41
2022-12-26T18:57:50.159Z,101668.13
2022-12-26T19:00:18.786Z,101669.19
2022-12-26T19:02:48.770Z,101674.84
2022-12-26T19:05:19.406Z,101674.84
2022-12-26T19:07:48.571Z,101685.66
2022-12-26T19:10:17.771Z,101691.84
2022-12-26T19:12:46.469Z,101684.84
2022-12-26T19:15:15.512Z,101690.78
2022-12-26T19:17:44.058Z,101694.78
2022-12-26T19:20:19.522Z,101698.81
2022-12-26T19:22:48.516Z,101710.38
2022-12-26T19:25:17.583Z,101711.94
2022-12-26T19:27:46.068Z,101720.03
2022-12-26T19:30:15.427Z,101713.03
2022-12-26T19:32:43.644Z,101726.50
2022-12-26T19:35:14.268Z,101728.38
2022-12-26T19:37:42.699Z,101727.00
2022-12-26T19:40:12.378Z,101724.84
2022-12-26T19:42:40.574Z,101735.31
2022-12-26T19:45:11.161Z,101736.66
2022-12-26T19:47:39.350Z,101737.16
2022-12-26T19:50:09.416Z,101739.59
2022-12-26T19:52:40.701Z,101739.84
2022-12-26T19:55:11.978Z,101743.31
2022-12-26T19:57:39.843Z,101744.66
2022-12-26T20:00:09.469Z,101750.53
2022-12-26T20:02:37.359Z,101749.41
2022-12-26T20:05:06.155Z,101760.44
2022-12-26T20:07:34.453Z,101768.78
2022-12-26T20:10:04.144Z,101771.41
2022-12-26T20:12:32.053Z,101771.91
2022-12-26T20:14:59.929Z,101776.78
2022-12-26T20:17:27.807Z,101778.94
2022-12-26T20:19:55.908Z,101788.91
2022-12-26T20:22:24.210Z,101781.59
2022-12-26T20:24:52.272Z,101786.66
2022-12-26T20:27:21.482Z,101790.69
2022-12-26T20:29:49.318Z,101791.75
2022-12-26T20:32:17.291Z,101787.38
2022-12-26T20:34:45.095Z,101789.00
2022-12-26T20:37:12.924Z,101796.00
2022-12-26T20:39:40.815Z,101804.56
2022-12-26T20:42:08.725Z,101804.56
2022-12-26T20:44:41.389Z,101796.75
2022-12-26T20:47:09.666Z,101805.09
2022-12-26T20:49:37.731Z,101803.16
2022-12-26T20:52:05.916Z,101805.56
2022-12-26T20:54:33.781Z,101806.91
2022-12-26T20:57:02.926Z,101808.25
2022-12-26T20:59:30.787Z,101806.28
2022-12-26T21:02:00.417Z,101806.28
2022-12-26T21:04:28.471Z,101797.91
2022-12-26T21:06:56.271Z,101803.34
2022-12-26T21:09:24.135Z,101801.72
2022-12-26T21:11:52.001Z,101809.28
2022-12-26T21:14:22.528Z,101808.72
2022-12-26T21:16:51.959Z,101813.63
2022-12-26T21:19:22.225Z,101819.50
2022-12-26T21:21:53.556Z,101820.63
2022-12-26T21:24:23.708Z,101835.72
2022-12-26T21:26:52.546Z,101833.31
2022-12-26T21:29:22.550Z,101832.81
2022-12-26T21:31:50.805Z,101831.50
2022-12-26T21:34:20.527Z,101829.34
2022-12-26T21:37:04.217Z,101832.63
2022-12-26T21:39:32.495Z,101829.34
2022-12-26T21:42:01.148Z,101828.84
2022-12-26T21:44:29.298Z,101826.16
2022-12-26T21:46:57.229Z,101843.38
2022-12-26T21:49:25.033Z,101837.69
2022-12-26T21:51:54.382Z,101826.63
2022-12-26T21:54:44.874Z,101841.44
2022-12-26T21:57:16.672Z,101840.09
2022-12-26T22:00:00.036Z,101853.28
2022-12-26T22:02:48.200Z,101855.16
2022-12-26T22:05:16.645Z,101860.56
2022-12-26T22:07:46.568Z,101859.75
2022-12-26T22:10:35.513Z,101859.19
2022-12-26T22:13:03.157Z,101852.41
2022-12-26T22:15:48.679Z,101855.66
2022-12-26T22:18:17.072Z,101864.81
2022-12-26T22:20:46.159Z,101850.78
2022-12-26T22:23:15.905Z,101868.56
2022-12-26T22:25:44.106Z,101868.56
2022-12-26T22:28:12.027Z,101865.81
2022-12-26T22:30:40.021Z,101870.38
2022-12-26T22:33:07.900Z,101883.63
2022-12-26T22:35:35.775Z,101882.56
2022-12-26T22:38:03.657Z,101880.22
2022-12-26T22:40:32.801Z,101884.22
2022-12-26T22:43:00.658Z,101885.84
2022-12-26T22:45:28.506Z,101900.69
2022-12-26T22:47:56.501Z,101895.00
2022-12-26T22:50:24.631Z,101895.81
2022-12-26T22:52:53.069Z,101893.94
2022-12-26T22:55:20.866Z,101901.69
2022-12-26T22:57:52.761Z,101899.81
2022-12-26T23:00:21.397Z,101910.03
2022-12-26T23:02:49.339Z,101898.44
2022-12-26T23:05:17.940Z,101914.25
2022-12-26T23:07:46.497Z,101904.34
2022-12-26T23:10:21.559Z,101914.78
2022-12-26T23:12:51.276Z,101912.63
2022-12-26T23:15:21.141Z,101910.47
2022-12-26T23:18:14.121Z,101911.78
2022-12-26T23:20:59.607Z,101911.53
2022-12-26T23:23:27.943Z,101905.53
2022-12-26T23:25:55.850Z,101922.78
2022-12-26T23:28:42.429Z,101919.03
2022-12-26T23:31:10.385Z,101910.91
2022-12-26T23:33:38.248Z,101923.28
2022-12-26T23:36:06.487Z,101911.41
2022-12-26T23:38:34.288Z,101910.91
2022-12-26T23:41:02.374Z,101915.78
2022-12-26T23:43:33.457Z,101915.28
2022-12-26T23:46:01.576Z,101919.34
2022-12-26T23:48:29.590Z,101916.91
2022-12-26T23:51:04.576Z,101926.06
2022-12-26T23:53:32.640Z,101923.38
2022-12-26T23:56:00.629Z,101920.69
2022-12-26T23:58:28.618Z,101917.91
